createdAt,value
2023-01-20T00:01:22.593Z,222.50
2023-01-20T00:03:51.994Z,238.50
2023-01-20T00:06:20.070Z,224.60
2023-01-20T00:08:55.211Z,143.30
2023-01-20T00:11:23.553Z,147.30
2023-01-20T00:13:55.958Z,129.60
2023-01-20T00:16:24.524Z,158.60
2023-01-20T00:18:52.917Z,159.70
2023-01-20T00:21:21.403Z,138.40
2023-01-20T00:23:50.016Z,169.10
2023-01-20T00:26:19.646Z,161.70
2023-01-20T00:28:48.166Z,170.50
2023-01-20T00:31:20.697Z,161.10
2023-01-20T00:33:49.728Z,168.80
2023-01-20T00:36:18.354Z,184.00
2023-01-20T00:38:46.349Z,196.70
2023-01-20T00:41:15.560Z,205.40
2023-01-20T00:43:43.989Z,175.10
2023-01-20T00:46:12.197Z,174.40
2023-01-20T00:48:40.041Z,218.90
2023-01-20T00:51:08.838Z,207.40
2023-01-20T00:53:36.813Z,250.60
2023-01-20T00:56:05.204Z,202.70
2023-01-20T00:58:33.132Z,205.00
2023-01-20T01:01:01.405Z,235.00
2023-01-20T01:03:29.415Z,228.40
2023-01-20T01:06:11.604Z,226.00
2023-01-20T01:08:39.507Z,193.40
2023-01-20T01:11:07.581Z,174.40
2023-01-20T01:13:36.136Z,188.90
2023-01-20T01:16:04.832Z,168.30
2023-01-20T01:18:32.632Z,185.30
2023-01-20T01:21:05.508Z,169.60
2023-01-20T01:23:33.331Z,167.70
2023-01-20T01:26:01.107Z,138.80
2023-01-20T01:28:29.044Z,112.80
2023-01-20T01:30:59.941Z,123.10
2023-01-20T01:33:28.221Z,123.60
2023-01-20T01:36:00.193Z,138.30
2023-01-20T01:38:29.219Z,139.40
2023-01-20T01:40:57.555Z,124.30
2023-01-20T01:43:26.870Z,143.10
2023-01-20T01:45:55.200Z,124.40
2023-01-20T01:48:28.725Z,119.50
2023-01-20T01:50:58.676Z,119.70
2023-01-20T01:53:27.539Z,132.10
2023-01-20T01:55:57.514Z,122.10
2023-01-20T01:58:28.322Z,117.00
2023-01-20T02:00:56.314Z,171.50
2023-01-20T02:03:24.739Z,199.80
2023-01-20T02:05:53.044Z,179.70
2023-01-20T02:08:20.971Z,160.80
2023-01-20T02:10:48.899Z,125.40
2023-01-20T02:13:17.162Z,135.00
2023-01-20T02:15:51.636Z,150.80
2023-01-20T02:18:28.546Z,186.30
2023-01-20T02:20:56.536Z,190.80
2023-01-20T02:23:27.735Z,169.40
2023-01-20T02:26:10.845Z,160.70
2023-01-20T02:28:38.728Z,136.00
2023-01-20T02:31:06.541Z,127.50
2023-01-20T02:33:51.092Z,124.40
2023-01-20T02:36:25.029Z,108.50
2023-01-20T02:38:57.130Z,125.60
2023-01-20T02:41:35.505Z,162.90
2023-01-20T02:44:03.325Z,190.70
2023-01-20T02:46:33.272Z,184.10
2023-01-20T02:49:08.660Z,149.40
2023-01-20T02:51:41.129Z,157.70
2023-01-20T02:54:10.941Z,165.40
2023-01-20T02:56:39.737Z,156.70
2023-01-20T02:59:12.345Z,162.30
2023-01-20T03:01:41.880Z,181.10
2023-01-20T03:04:11.270Z,166.40
2023-01-20T03:06:42.664Z,166.60
2023-01-20T03:09:13.312Z,176.50
2023-01-20T03:11:43.881Z,191.30
2023-01-20T03:14:13.512Z,188.40
2023-01-20T03:16:41.822Z,204.80
2023-01-20T03:19:10.045Z,213.60
2023-01-20T03:21:37.896Z,183.10
2023-01-20T03:24:06.243Z,189.40
2023-01-20T03:26:34.145Z,208.50
2023-01-20T03:29:16.203Z,223.70
2023-01-20T03:31:49.436Z,216.00
2023-01-20T03:34:19.230Z,216.50
2023-01-20T03:36:48.245Z,218.60
2023-01-20T03:39:16.755Z,210.80
2023-01-20T03:42:02.002Z,185.10
2023-01-20T03:44:39.009Z,174.20
2023-01-20T03:47:25.592Z,196.10
2023-01-20T03:50:19.485Z,157.50
2023-01-20T03:53:06.453Z,152.20
2023-01-20T03:55:37.063Z,193.60
2023-01-20T03:58:22.345Z,173.40
2023-01-20T04:00:51.112Z,133.40
2023-01-20T04:03:25.681Z,93.20
2023-01-20T04:05:53.579Z,90.80
2023-01-20T04:08:22.518Z,86.30
2023-01-20T04:10:51.187Z,83.80
2023-01-20T04:13:19.245Z,84.00
2023-01-20T04:15:47.227Z,78.50
2023-01-20T04:18:16.022Z,82.30
2023-01-20T04:20:44.758Z,80.20
2023-01-20T04:23:16.803Z,104.40
2023-01-20T04:25:44.657Z,108.90
2023-01-20T04:28:12.554Z,108.20
2023-01-20T04:30:40.338Z,113.10
2023-01-20T04:33:08.086Z,119.10
2023-01-20T04:35:36.050Z,144.10
2023-01-20T04:38:03.867Z,142.00
2023-01-20T04:40:31.851Z,137.50
2023-01-20T04:42:59.713Z,131.10
2023-01-20T04:45:27.548Z,112.80
2023-01-20T04:47:55.597Z,123.40
2023-01-20T04:50:23.395Z,113.60
2023-01-20T04:52:54.339Z,121.90
2023-01-20T04:55:22.162Z,111.10
2023-01-20T04:57:49.964Z,121.50
2023-01-20T05:00:20.184Z,112.90
2023-01-20T05:02:48.163Z,111.60
2023-01-20T05:05:16.865Z,131.10
2023-01-20T05:07:44.894Z,126.40
2023-01-20T05:12:09.687Z,127.70
2023-01-20T05:14:37.451Z,129.60
2023-01-20T05:17:05.465Z,138.00
2023-01-20T05:19:33.281Z,124.00
2023-01-20T05:22:01.114Z,121.20
2023-01-20T05:24:31.207Z,130.00
2023-01-20T05:27:02.292Z,125.40
2023-01-20T05:29:32.432Z,119.70
2023-01-20T05:32:00.354Z,127.90
2023-01-20T05:34:28.369Z,123.00
2023-01-20T05:36:56.377Z,106.80
2023-01-20T05:39:24.265Z,107.30
2023-01-20T05:41:52.236Z,110.00
2023-01-20T05:44:19.982Z,114.70
2023-01-20T05:46:47.946Z,135.30
2023-01-20T05:49:15.825Z,124.80
2023-01-20T05:51:43.701Z,122.70
2023-01-20T05:54:11.501Z,122.40
2023-01-20T05:56:39.415Z,95.70
2023-01-20T05:59:08.007Z,86.40
2023-01-20T06:01:36.011Z,120.90
2023-01-20T06:04:04.002Z,117.10
2023-01-20T06:06:31.796Z,120.20
2023-01-20T06:08:59.706Z,127.10
2023-01-20T06:11:27.764Z,131.00
2023-01-20T06:13:55.615Z,120.50
2023-01-20T06:16:23.540Z,106.20
2023-01-20T06:18:51.371Z,123.80
2023-01-20T06:21:19.253Z,119.70
2023-01-20T06:23:47.221Z,115.50
2023-01-20T06:26:15.126Z,112.40
2023-01-20T06:28:43.138Z,110.70
2023-01-20T06:31:15.098Z,121.00
2023-01-20T06:33:44.048Z,135.30
2023-01-20T06:36:14.114Z,156.50
2023-01-20T06:38:42.089Z,157.00
2023-01-20T06:41:11.417Z,145.50
2023-01-20T06:43:40.416Z,145.70
2023-01-20T06:46:10.159Z,134.20
2023-01-20T06:48:38.955Z,143.20
2023-01-20T06:51:08.163Z,115.40
2023-01-20T06:53:37.315Z,108.80
2023-01-20T06:56:05.815Z,107.50
2023-01-20T06:58:34.034Z,89.90
2023-01-20T07:01:09.371Z,71.80
2023-01-20T07:03:37.359Z,71.50
2023-01-20T07:06:15.009Z,65.10
2023-01-20T07:08:44.154Z,94.00
2023-01-20T07:11:12.629Z,89.20
2023-01-20T07:13:40.509Z,94.00
2023-01-20T07:16:11.031Z,145.50
2023-01-20T07:18:42.617Z,100.90
2023-01-20T07:21:11.651Z,86.20
2023-01-20T07:23:42.179Z,63.00
2023-01-20T07:26:15.442Z,106.30
2023-01-20T07:28:43.816Z,104.70
2023-01-20T07:31:13.151Z,93.80
2023-01-20T07:33:41.033Z,91.30
2023-01-20T07:36:10.096Z,85.00
2023-01-20T07:38:38.046Z,71.20
2023-01-20T07:41:07.454Z,72.90
2023-01-20T07:43:35.275Z,76.80
2023-01-20T07:46:04.421Z,64.50
2023-01-20T07:48:33.298Z,67.60
2023-01-20T07:51:03.240Z,67.50
2023-01-20T07:53:32.368Z,63.10
2023-01-20T07:56:01.805Z,59.60
2023-01-20T07:58:30.089Z,59.20
2023-01-20T08:00:57.903Z,57.60
2023-01-20T08:03:27.331Z,53.60
2023-01-20T08:05:55.324Z,58.80
2023-01-20T08:08:23.454Z,55.20
2023-01-20T08:10:55.060Z,49.30
2023-01-20T08:13:23.071Z,58.90
2023-01-20T08:15:50.843Z,54.70
2023-01-20T08:18:18.666Z,56.20
2023-01-20T08:20:46.693Z,60.10
2023-01-20T08:23:14.542Z,52.70
2023-01-20T08:25:43.072Z,60.40
2023-01-20T08:28:11.268Z,58.70
2023-01-20T08:30:39.386Z,61.40
2023-01-20T08:33:07.172Z,65.80
2023-01-20T08:35:36.762Z,69.50
2023-01-20T08:38:05.898Z,80.20
2023-01-20T08:40:34.242Z,67.60
2023-01-20T08:43:02.310Z,67.90
2023-01-20T08:45:30.133Z,68.60
2023-01-20T08:47:57.887Z,61.10
2023-01-20T08:50:25.799Z,58.10
2023-01-20T08:52:53.649Z,51.40
2023-01-20T08:55:21.752Z,51.00
2023-01-20T08:57:49.667Z,55.60
2023-01-20T09:00:18.006Z,53.20
2023-01-20T09:02:45.935Z,48.80
2023-01-20T09:05:15.208Z,51.60
2023-01-20T09:07:43.133Z,48.30
2023-01-20T09:10:11.431Z,51.30
2023-01-20T09:12:39.664Z,41.60
2023-01-20T09:15:07.923Z,44.40
2023-01-20T09:17:36.212Z,38.10
2023-01-20T09:20:04.257Z,39.30
2023-01-20T09:22:32.336Z,43.30
2023-01-20T09:25:00.552Z,43.20
2023-01-20T09:27:28.516Z,39.90
2023-01-20T09:29:56.298Z,41.70
2023-01-20T09:32:24.179Z,45.10
2023-01-20T09:34:52.083Z,42.00
2023-01-20T09:37:38.836Z,41.90
2023-01-20T09:40:29.928Z,37.80
2023-01-20T09:43:29.726Z,38.10
2023-01-20T09:46:02.165Z,44.90
2023-01-20T09:48:57.100Z,40.30
2023-01-20T09:51:50.491Z,45.60
2023-01-20T09:54:25.357Z,41.90
2023-01-20T09:56:54.210Z,48.50
2023-01-20T09:59:30.340Z,44.80
2023-01-20T10:02:01.016Z,47.60
2023-01-20T10:04:34.903Z,45.80
2023-01-20T10:07:14.163Z,43.00
2023-01-20T10:10:05.451Z,52.00
2023-01-20T10:13:02.510Z,47.70
2023-01-20T10:15:33.321Z,38.40
2023-01-20T10:18:10.004Z,37.90
2023-01-20T10:20:50.490Z,45.70
2023-01-20T10:23:19.755Z,40.90
2023-01-20T10:25:50.289Z,32.50
2023-01-20T10:28:31.151Z,41.20
2023-01-20T10:31:01.365Z,44.30
2023-01-20T10:33:34.905Z,40.50
2023-01-20T10:36:02.655Z,41.40
2023-01-20T10:38:33.443Z,38.00
2023-01-20T10:41:06.242Z,42.90
2023-01-20T10:43:33.983Z,40.30
2023-01-20T10:46:04.951Z,39.90
2023-01-20T10:48:44.787Z,37.40
2023-01-20T10:51:17.864Z,44.10
2023-01-20T10:53:52.156Z,42.70
2023-01-20T10:56:28.082Z,44.30
2023-01-20T10:58:57.894Z,47.60
2023-01-20T11:01:25.918Z,43.60
2023-01-20T11:03:53.844Z,46.90
2023-01-20T11:06:26.886Z,45.70
2023-01-20T11:08:55.348Z,52.90
2023-01-20T11:11:24.751Z,58.50
2023-01-20T11:13:53.687Z,57.50
2023-01-20T11:16:28.803Z,59.60
2023-01-20T11:19:00.304Z,59.60
2023-01-20T11:21:30.681Z,61.60
2023-01-20T11:23:59.000Z,60.50
2023-01-20T11:26:29.794Z,68.70
2023-01-20T11:28:59.626Z,63.50
2023-01-20T11:31:36.228Z,62.40
2023-01-20T11:34:21.520Z,62.80
2023-01-20T11:37:11.956Z,58.60
2023-01-20T11:39:39.784Z,65.70
2023-01-20T11:42:17.692Z,65.10
2023-01-20T11:44:50.165Z,97.90
2023-01-20T11:47:20.937Z,95.80
2023-01-20T11:50:05.521Z,73.40
2023-01-20T11:52:34.862Z,65.40
2023-01-20T11:55:16.461Z,60.40
2023-01-20T11:57:50.751Z,64.00
2023-01-20T12:00:18.519Z,58.40
2023-01-20T12:03:09.414Z,58.50
2023-01-20T12:05:55.351Z,62.90
2023-01-20T12:08:35.286Z,63.90
2023-01-20T12:11:05.717Z,60.80
2023-01-20T12:13:58.243Z,75.40
2023-01-20T12:16:28.582Z,64.90
2023-01-20T12:19:02.231Z,66.90
2023-01-20T12:21:41.182Z,69.10
2023-01-20T12:24:18.710Z,69.70
2023-01-20T12:26:46.856Z,72.90
2023-01-20T12:29:23.391Z,73.50
2023-01-20T12:31:51.195Z,72.60
2023-01-20T12:34:24.290Z,82.90
2023-01-20T12:37:01.315Z,88.50
2023-01-20T12:39:32.221Z,93.80
2023-01-20T12:42:18.686Z,97.60
2023-01-20T12:44:49.682Z,282.80
2023-01-20T12:47:43.517Z,138.40
2023-01-20T12:50:11.561Z,122.50
2023-01-20T12:52:39.417Z,101.50
2023-01-20T12:55:22.923Z,93.20
2023-01-20T12:57:50.747Z,77.30
2023-01-20T13:00:21.524Z,75.80
2023-01-20T13:02:49.379Z,79.60
2023-01-20T13:05:32.822Z,82.20
2023-01-20T13:08:03.605Z,80.80
2023-01-20T13:10:51.476Z,72.30
2023-01-20T13:13:19.424Z,78.90
2023-01-20T13:16:09.027Z,79.30
2023-01-20T13:18:54.908Z,82.90
2023-01-20T13:21:22.707Z,69.50
2023-01-20T13:23:51.003Z,65.20
2023-01-20T13:26:19.282Z,76.10
2023-01-20T13:28:54.150Z,67.30
2023-01-20T13:31:37.404Z,69.70
2023-01-20T13:34:23.318Z,74.90
2023-01-20T13:37:10.239Z,72.80
2023-01-20T13:39:42.942Z,64.20
2023-01-20T13:42:30.939Z,62.50
2023-01-20T13:45:14.531Z,63.20
2023-01-20T13:47:48.909Z,61.90
2023-01-20T13:50:22.974Z,75.50
2023-01-20T13:52:50.772Z,76.40
2023-01-20T13:55:37.661Z,77.10
2023-01-20T13:58:12.009Z,74.60
2023-01-20T14:00:39.946Z,86.10
2023-01-20T14:03:19.985Z,88.40
2023-01-20T14:05:51.670Z,72.80
2023-01-20T14:08:20.017Z,60.80
2023-01-20T14:10:48.117Z,61.90
2023-01-20T14:13:20.685Z,58.10
2023-01-20T14:15:53.190Z,66.20
2023-01-20T14:18:22.900Z,63.40
2023-01-20T14:20:57.021Z,61.10
2023-01-20T14:23:26.441Z,64.20
2023-01-20T14:25:58.269Z,57.90
2023-01-20T14:28:26.395Z,57.90
2023-01-20T14:31:13.333Z,61.80
2023-01-20T14:33:48.794Z,56.50
2023-01-20T14:36:18.420Z,54.50
2023-01-20T14:38:57.396Z,62.50
2023-01-20T14:41:33.675Z,58.00
2023-01-20T14:44:02.301Z,60.20
2023-01-20T14:48:34.503Z,70.30
2023-01-20T14:51:04.457Z,63.80
2023-01-20T14:53:32.547Z,58.60
2023-01-20T14:56:02.051Z,57.60
2023-01-20T14:58:30.741Z,56.30
2023-01-20T15:01:01.225Z,60.60
2023-01-20T15:03:29.844Z,65.80
2023-01-20T15:06:03.365Z,67.50
2023-01-20T15:08:34.539Z,61.90
2023-01-20T15:11:11.910Z,55.80
2023-01-20T15:13:40.483Z,54.70
2023-01-20T15:16:18.699Z,49.70
2023-01-20T15:19:05.746Z,49.70
2023-01-20T15:21:35.540Z,53.70
2023-01-20T15:24:12.301Z,55.80
2023-01-20T15:26:43.344Z,55.40
2023-01-20T15:29:30.773Z,48.30
2023-01-20T15:32:00.417Z,52.60
2023-01-20T15:34:37.559Z,51.20
2023-01-20T15:37:11.611Z,52.10
2023-01-20T15:39:39.452Z,58.10
2023-01-20T15:42:10.104Z,59.70
2023-01-20T15:44:38.231Z,53.00
2023-01-20T15:47:13.062Z,56.10
2023-01-20T15:49:41.263Z,61.10
2023-01-20T15:52:11.145Z,61.40
2023-01-20T15:54:38.992Z,66.50
2023-01-20T15:57:12.221Z,69.40
2023-01-20T15:59:41.970Z,62.80
2023-01-20T16:02:16.361Z,58.50
2023-01-20T16:04:44.516Z,61.00
2023-01-20T16:07:14.210Z,60.30
2023-01-20T16:09:42.264Z,83.50
2023-01-20T16:12:17.712Z,87.40
2023-01-20T16:14:45.841Z,97.60
2023-01-20T16:17:18.336Z,119.30
2023-01-20T16:19:46.278Z,87.10
2023-01-20T16:22:14.782Z,85.80
2023-01-20T16:24:43.082Z,82.90
2023-01-20T16:27:14.907Z,79.30
2023-01-20T16:29:43.039Z,75.10
2023-01-20T16:32:11.592Z,79.70
2023-01-20T16:34:39.599Z,73.50
2023-01-20T16:37:07.480Z,81.10
2023-01-20T16:39:35.437Z,79.00
2023-01-20T16:42:23.135Z,67.40
2023-01-20T16:44:55.524Z,80.00
2023-01-20T16:47:25.284Z,87.80
2023-01-20T16:50:01.457Z,91.60
2023-01-20T16:52:33.776Z,89.10
2023-01-20T16:55:05.173Z,80.80
2023-01-20T16:57:33.526Z,85.10
2023-01-20T17:00:01.630Z,89.80
2023-01-20T17:02:30.513Z,82.40
2023-01-20T17:05:03.274Z,94.70
2023-01-20T17:07:31.779Z,95.10
2023-01-20T17:09:59.844Z,78.20
2023-01-20T17:12:27.944Z,86.90
2023-01-20T17:14:55.901Z,100.80
2023-01-20T17:17:24.046Z,93.60
2023-01-20T17:19:52.955Z,93.70
2023-01-20T17:22:21.825Z,102.90
2023-01-20T17:24:53.187Z,92.30
2023-01-20T17:33:34.255Z,99.10
2023-01-20T17:36:03.504Z,83.90
2023-01-20T17:38:32.469Z,86.80
2023-01-20T17:41:01.821Z,84.80
2023-01-20T17:43:34.101Z,91.90
2023-01-20T17:46:11.737Z,86.00
2023-01-20T17:48:42.375Z,85.00
2023-01-20T17:51:33.432Z,86.40
2023-01-20T17:54:06.151Z,85.60
2023-01-20T17:56:35.203Z,82.90
2023-01-20T17:59:03.879Z,81.90
2023-01-20T18:01:35.108Z,71.00
2023-01-20T18:04:10.544Z,77.60
2023-01-20T18:06:46.317Z,65.20
2023-01-20T18:09:16.300Z,70.60
2023-01-20T18:11:44.842Z,75.20
2023-01-20T18:14:13.870Z,87.00
2023-01-20T18:16:42.514Z,110.70
2023-01-20T18:19:14.270Z,99.50
2023-01-20T18:21:43.668Z,93.30
2023-01-20T18:24:13.541Z,95.70
2023-01-20T18:26:44.862Z,86.00
2023-01-20T18:29:19.459Z,95.90
2023-01-20T18:32:25.896Z,88.60
2023-01-20T18:34:55.423Z,87.20
2023-01-20T18:37:25.076Z,77.90
2023-01-20T18:39:52.014Z,80.60
2023-01-20T18:42:19.827Z,73.90
2023-01-20T18:44:47.897Z,90.60
2023-01-20T18:47:15.496Z,73.40
2023-01-20T18:49:42.872Z,75.20
2023-01-20T18:52:10.339Z,80.50
2023-01-20T18:54:38.656Z,84.10
2023-01-20T18:57:08.697Z,83.30
2023-01-20T18:59:36.457Z,71.30
2023-01-20T19:02:03.958Z,62.20
2023-01-20T19:04:33.627Z,71.70
2023-01-20T19:07:04.935Z,89.20
2023-01-20T19:09:55.185Z,85.10
2023-01-20T19:12:28.740Z,82.00
2023-01-20T19:14:57.836Z,80.10
2023-01-20T19:17:29.309Z,68.60
2023-01-20T19:20:01.832Z,69.50
2023-01-20T19:22:32.225Z,66.60
2023-01-20T19:25:01.144Z,62.70
2023-01-20T19:27:36.945Z,67.50
2023-01-20T19:30:08.826Z,63.70
2023-01-20T19:32:49.287Z,66.50
2023-01-20T19:35:21.617Z,74.00
2023-01-20T19:38:00.185Z,78.00
2023-01-20T19:40:46.989Z,67.20
2023-01-20T19:43:42.489Z,74.20
2023-01-20T19:46:28.643Z,61.50
2023-01-20T19:49:14.715Z,59.00
2023-01-20T19:51:57.571Z,60.40
2023-01-20T19:54:41.239Z,63.90
2023-01-20T19:57:20.077Z,52.50
2023-01-20T20:00:10.062Z,61.00
2023-01-20T20:02:58.013Z,60.50
2023-01-20T20:05:42.676Z,60.30
2023-01-20T20:08:33.461Z,59.60
2023-01-20T20:11:03.701Z,64.30
2023-01-20T20:13:52.666Z,71.40
2023-01-20T20:16:34.807Z,65.10
2023-01-20T20:19:12.381Z,64.20
2023-01-20T20:21:47.283Z,62.70
2023-01-20T20:24:20.979Z,59.70
2023-01-20T20:26:58.651Z,56.60
2023-01-20T20:29:30.113Z,65.10
2023-01-20T20:32:03.766Z,71.10
2023-01-20T20:34:33.633Z,53.70
2023-01-20T20:37:03.577Z,60.70
2023-01-20T20:39:32.544Z,57.90
2023-01-20T20:42:01.233Z,48.50
2023-01-20T20:44:29.986Z,52.50
2023-01-20T20:46:59.372Z,59.50
2023-01-20T20:49:32.357Z,53.10
2023-01-20T20:52:01.273Z,60.20
2023-01-20T20:54:32.061Z,62.10
2023-01-20T20:57:01.211Z,68.40
2023-01-20T20:59:30.627Z,60.30
2023-01-20T21:01:59.567Z,54.80
2023-01-20T21:04:30.197Z,60.20
2023-01-20T21:07:01.268Z,51.80
2023-01-20T21:09:32.054Z,48.30
2023-01-20T21:12:00.868Z,49.50
2023-01-20T21:14:29.735Z,55.20
2023-01-20T21:16:58.591Z,47.40
2023-01-20T21:19:29.865Z,42.70
2023-01-20T21:21:59.397Z,37.90
2023-01-20T21:24:29.363Z,42.70
2023-01-20T21:26:58.311Z,38.30
2023-01-20T21:29:29.123Z,40.90
2023-01-20T21:31:58.542Z,40.60
2023-01-20T21:34:29.920Z,42.30
2023-01-20T21:36:59.972Z,40.40
2023-01-20T21:39:29.090Z,41.80
2023-01-20T21:41:58.791Z,39.70
2023-01-20T21:44:31.843Z,39.80
2023-01-20T21:47:16.647Z,44.90
2023-01-20T21:50:03.725Z,44.30
2023-01-20T21:52:41.657Z,40.50
2023-01-20T21:55:16.323Z,35.60
2023-01-20T21:57:51.066Z,37.00
2023-01-20T22:00:20.443Z,41.30
2023-01-20T22:02:49.178Z,36.20
2023-01-20T22:05:20.982Z,37.10
2023-01-20T22:07:49.462Z,38.40
2023-01-20T22:10:17.727Z,38.70
2023-01-20T22:12:45.940Z,37.50
2023-01-20T22:15:14.276Z,40.50
2023-01-20T22:17:42.617Z,39.30
2023-01-20T22:20:11.137Z,39.70
2023-01-20T22:22:40.260Z,39.30
2023-01-20T22:25:08.444Z,34.50
2023-01-20T22:27:36.444Z,34.90
2023-01-20T22:30:04.667Z,34.00
2023-01-20T22:32:32.534Z,38.80
2023-01-20T22:35:00.281Z,35.40
2023-01-20T22:37:30.982Z,37.10
2023-01-20T22:39:58.797Z,37.90
2023-01-20T22:42:26.798Z,37.50
2023-01-20T22:44:55.855Z,40.80
2023-01-20T22:47:23.838Z,45.20
2023-01-20T22:49:55.287Z,41.80
2023-01-20T22:52:23.647Z,38.00
2023-01-20T22:54:51.530Z,43.40
2023-01-20T22:57:19.526Z,37.00
2023-01-20T22:59:47.331Z,38.30
2023-01-20T23:02:15.200Z,52.40
2023-01-20T23:04:43.609Z,51.80
2023-01-20T23:07:11.626Z,41.30
2023-01-20T23:09:39.493Z,46.20
2023-01-20T23:12:07.314Z,44.90
2023-01-20T23:14:55.334Z,43.80
2023-01-20T23:17:26.305Z,40.60
2023-01-20T23:19:55.103Z,38.20
2023-01-20T23:30:13.756Z,39.20
2023-01-20T23:32:40.528Z,36.10
2023-01-20T23:35:07.231Z,39.60
2023-01-20T23:37:33.647Z,39.50
2023-01-20T23:40:00.122Z,37.30
2023-01-20T23:42:26.595Z,38.20
2023-01-20T23:44:55.849Z,36.30
2023-01-20T23:47:22.366Z,33.30
2023-01-20T23:49:50.065Z,36.20
2023-01-20T23:52:16.495Z,33.30
2023-01-20T23:54:43.034Z,35.00
2023-01-20T23:57:09.437Z,29.90
